Time;durP1;ratioP1;P1;durP2;ratioP2;P2;SDS_P1;SDS_P2;PMS_P1;PMS_P2;Temp;Humidity;BMP_temperature;BMP_pressure;BME280_temperature;BME280_humidity;BME280_pressure;Samples;Min_cycle;Max_cycle;Signal;HPM_P1;HPM_P2
2023/03/10 00:02:03;;;;;;;0.00;0.00;;;2.20;89.70;;;;;;5068149;28;20097;-67
2023/03/10 00:04:28;;;;;;;0.00;0.00;;;2.20;89.70;;;;;;5051690;28;20040;-66
2023/03/10 00:06:54;;;;;;;0.30;0.30;;;2.20;89.70;;;;;;5065414;28;20039;-67
2023/03/10 00:09:19;;;;;;;0.00;0.00;;;2.20;89.80;;;;;;5068865;28;20079;-67
2023/03/10 00:11:45;;;;;;;0.00;0.00;;;2.20;89.80;;;;;;5051277;28;20041;-67
2023/03/10 00:14:11;;;;;;;0.10;0.10;;;2.20;90.00;;;;;;5068528;28;20053;-67
2023/03/10 00:16:36;;;;;;;0.00;0.00;;;2.20;89.90;;;;;;5069432;28;20097;-67
2023/03/10 00:19:02;;;;;;;0.00;0.00;;;2.20;89.80;;;;;;5068668;28;20033;-67
2023/03/10 00:21:30;;;;;;;0.00;0.00;;;2.20;89.90;;;;;;5069164;28;20109;-67
2023/03/10 00:23:56;;;;;;;0.20;0.20;;;2.20;89.70;;;;;;5068989;28;20147;-67
2023/03/10 00:26:24;;;;;;;0.00;0.00;;;2.20;89.70;;;;;;5051271;28;20502;-67
2023/03/10 00:28:50;;;;;;;0.00;0.00;;;2.20;89.90;;;;;;5068736;28;20052;-67
2023/03/10 00:31:18;;;;;;;0.00;0.00;;;2.20;90.00;;;;;;5070402;28;20409;-67
2023/03/10 00:33:44;;;;;;;0.10;0.10;;;2.20;89.90;;;;;;5068483;28;20056;-67
2023/03/10 00:36:22;;;;;;;0.03;0.03;;;2.20;89.70;;;;;;5070231;28;20401;-67
2023/03/10 00:38:48;;;;;;;0.00;0.00;;;2.20;89.80;;;;;;5068035;28;20139;-67
2023/03/10 00:41:24;;;;;;;0.00;0.00;;;2.20;89.80;;;;;;5068523;28;20052;-67
2023/03/10 00:43:50;;;;;;;0.43;0.43;;;2.20;89.80;;;;;;5067767;28;20048;-67
2023/03/10 00:46:16;;;;;;;0.20;0.20;;;2.20;89.80;;;;;;5068922;28;20033;-67
2023/03/10 00:48:42;;;;;;;0.00;0.00;;;2.20;89.70;;;;;;5069406;28;20043;-67
2023/03/10 00:51:08;;;;;;;0.63;0.52;;;2.20;89.70;;;;;;5068477;28;20055;-67
2023/03/10 00:53:36;;;;;;;0.10;0.10;;;2.20;89.80;;;;;;5068475;28;20129;-67
2023/03/10 00:56:20;;;;;;;0.00;0.00;;;2.20;89.90;;;;;;5069013;28;20037;-67
2023/03/10 00:58:49;;;;;;;0.00;0.00;;;2.20;90.00;;;;;;5065746;28;20043;-67
2023/03/10 01:01:18;;;;;;;0.10;0.10;;;2.20;90.10;;;;;;5072130;28;20139;-67
2023/03/10 01:03:45;;;;;;;0.10;0.10;;;2.10;90.30;;;;;;5065822;28;20135;-67
2023/03/10 01:06:10;;;;;;;0.57;0.35;;;2.10;90.30;;;;;;5069122;28;20131;-67
2023/03/10 01:08:36;;;;;;;0.13;0.13;;;2.10;90.30;;;;;;5049809;28;20052;-67
2023/03/10 01:11:02;;;;;;;0.08;0.08;;;2.10;90.40;;;;;;5068250;28;20037;-68
2023/03/10 01:13:28;;;;;;;0.00;0.00;;;2.20;90.30;;;;;;5068102;28;20033;-68
2023/03/10 01:15:53;;;;;;;0.00;0.00;;;2.10;90.30;;;;;;5067633;28;20097;-67
2023/03/10 01:18:19;;;;;;;0.00;0.00;;;2.10;90.40;;;;;;5064408;28;20036;-67
2023/03/10 01:20:45;;;;;;;0.30;0.30;;;2.10;90.50;;;;;;5067954;28;20109;-68
2023/03/10 01:23:16;;;;;;;0.75;0.75;;;2.10;90.40;;;;;;5067554;28;20036;-67
2023/03/10 01:25:42;;;;;;;0.00;0.00;;;2.10;90.40;;;;;;5069486;28;20044;-67
2023/03/10 01:28:08;;;;;;;0.00;0.00;;;2.10;90.30;;;;;;5067873;28;20043;-67
2023/03/10 01:30:33;;;;;;;0.00;0.00;;;2.10;90.20;;;;;;5070774;28;20106;-67
2023/03/10 01:32:59;;;;;;;0.00;0.00;;;2.10;90.30;;;;;;5069630;28;20078;-67
2023/03/10 01:35:25;;;;;;;0.03;0.03;;;2.10;90.20;;;;;;5064609;28;20064;-67
2023/03/10 01:37:50;;;;;;;0.00;0.00;;;2.10;90.20;;;;;;5067655;28;20049;-67
2023/03/10 01:40:17;;;;;;;0.00;0.00;;;2.10;90.20;;;;;;5067728;28;20045;-67
2023/03/10 01:42:44;;;;;;;0.10;0.10;;;2.10;90.20;;;;;;5049301;28;20040;-67
2023/03/10 01:45:29;;;;;;;0.10;0.10;;;2.20;90.00;;;;;;5067855;28;20073;-67
2023/03/10 01:47:56;;;;;;;0.00;0.00;;;2.10;90.00;;;;;;5063595;28;20045;-67
2023/03/10 01:50:23;;;;;;;0.52;0.52;;;2.10;90.00;;;;;;5067295;28;20496;-67
2023/03/10 01:52:57;;;;;;;0.10;0.10;;;2.00;90.10;;;;;;5070167;28;20063;-68
2023/03/10 01:55:36;;;;;;;0.10;0.10;;;2.10;90.20;;;;;;5049464;28;20712;-67
2023/03/10 01:58:03;;;;;;;0.40;0.40;;;2.00;90.20;;;;;;5071280;28;20060;-67
2023/03/10 02:00:29;;;;;;;0.10;0.10;;;2.10;90.30;;;;;;5066256;28;20151;-67
2023/03/10 02:03:13;;;;;;;0.00;0.00;;;2.00;90.30;;;;;;5067309;28;20581;-67
2023/03/10 02:05:47;;;;;;;0.00;0.00;;;2.00;90.30;;;;;;5067542;28;20482;-67
2023/03/10 02:08:15;;;;;;;0.10;0.10;;;2.00;90.20;;;;;;5066944;28;20045;-67
2023/03/10 02:10:41;;;;;;;0.00;0.00;;;2.10;90.40;;;;;;5049425;28;20603;-67
2023/03/10 02:13:06;;;;;;;0.17;0.17;;;2.00;90.30;;;;;;5067402;28;20051;-67
2023/03/10 02:15:32;;;;;;;0.10;0.10;;;2.10;90.30;;;;;;5067532;28;20053;-67
2023/03/10 02:18:01;;;;;;;0.20;0.20;;;2.00;90.40;;;;;;5067509;28;20041;-67
2023/03/10 02:20:52;;;;;;;0.00;0.00;;;2.00;90.30;;;;;;5067184;28;20148;-67
2023/03/10 02:23:37;;;;;;;0.40;0.40;;;2.00;90.30;;;;;;5066639;28;20044;-68
2023/03/10 02:26:11;;;;;;;0.00;0.00;;;2.00;90.40;;;;;;5064144;28;20041;-68
2023/03/10 02:28:36;;;;;;;0.85;0.63;;;2.00;90.50;;;;;;5067819;28;20043;-68
2023/03/10 02:31:02;;;;;;;0.00;0.00;;;2.00;90.30;;;;;;5067534;28;20040;-68
2023/03/10 02:33:30;;;;;;;0.00;0.00;;;1.90;90.50;;;;;;5068282;28;20068;-68
2023/03/10 02:36:23;;;;;;;0.08;0.08;;;1.90;90.50;;;;;;5067060;28;20068;-68
2023/03/10 02:38:49;;;;;;;0.00;0.00;;;1.90;90.60;;;;;;5068122;28;20053;-67
2023/03/10 02:41:34;;;;;;;0.00;0.00;;;1.90;90.50;;;;;;5071212;28;20496;-68
2023/03/10 02:44:03;;;;;;;0.00;0.00;;;1.80;90.70;;;;;;5070754;28;20127;-68
2023/03/10 02:46:29;;;;;;;0.10;0.10;;;1.90;90.80;;;;;;5070963;28;20044;-69
2023/03/10 02:48:59;;;;;;;0.10;0.10;;;1.90;90.90;;;;;;5054184;28;20132;-68
2023/03/10 02:51:28;;;;;;;0.00;0.00;;;1.80;91.10;;;;;;5070998;28;20393;-68
2023/03/10 02:53:54;;;;;;;0.00;0.00;;;1.80;91.20;;;;;;5068283;28;20049;-68
2023/03/10 02:56:19;;;;;;;0.00;0.00;;;1.80;91.20;;;;;;5071004;28;20059;-68
2023/03/10 02:58:45;;;;;;;0.10;0.10;;;1.80;91.20;;;;;;5070818;28;20045;-68
2023/03/10 03:01:10;;;;;;;0.00;0.00;;;1.90;91.10;;;;;;5070643;28;20049;-68
2023/03/10 03:03:36;;;;;;;0.20;0.20;;;1.70;91.20;;;;;;5070800;28;20045;-68
2023/03/10 03:06:02;;;;;;;0.00;0.00;;;1.80;91.20;;;;;;5070949;28;20084;-68
2023/03/10 03:08:27;;;;;;;0.10;0.10;;;1.70;91.20;;;;;;5053523;28;20520;-68
2023/03/10 03:10:53;;;;;;;0.75;0.75;;;1.70;91.30;;;;;;5074191;28;20576;-68
2023/03/10 03:13:19;;;;;;;0.00;0.00;;;1.70;91.20;;;;;;5070481;28;20090;-68
2023/03/10 03:15:45;;;;;;;0.08;0.08;;;1.70;91.20;;;;;;5054271;28;20436;-69
2023/03/10 03:18:10;;;;;;;0.00;0.00;;;1.70;91.20;;;;;;5070693;28;20048;-68
2023/03/10 03:20:39;;;;;;;0.10;0.10;;;1.70;91.20;;;;;;5052217;28;20040;-68
2023/03/10 03:23:04;;;;;;;0.00;0.00;;;1.70;91.30;;;;;;5073323;28;20041;-69
2023/03/10 03:25:33;;;;;;;0.03;0.03;;;1.70;91.50;;;;;;5071003;28;20062;-69
2023/03/10 03:27:58;;;;;;;0.10;0.10;;;1.70;91.50;;;;;;5069968;28;20491;-68
2023/03/10 03:30:26;;;;;;;0.00;0.00;;;1.70;91.40;;;;;;5070262;28;20040;-68
2023/03/10 03:32:53;;;;;;;0.00;0.00;;;1.70;91.40;;;;;;5070685;28;20054;-68
2023/03/10 03:35:25;;;;;;;3.13;2.88;;;1.70;91.60;;;;;;5070339;28;20428;-68
2023/03/10 03:37:52;;;;;;;0.10;0.10;;;1.70;91.60;;;;;;5070052;28;20053;-68
2023/03/10 03:40:18;;;;;;;0.50;0.50;;;1.70;91.50;;;;;;5070203;28;20040;-68
2023/03/10 03:42:47;;;;;;;0.10;0.10;;;1.70;91.50;;;;;;5069168;28;20040;-68
2023/03/10 03:45:14;;;;;;;0.00;0.00;;;1.70;91.20;;;;;;5069560;28;20701;-68
2023/03/10 03:47:40;;;;;;;0.00;0.00;;;1.70;91.40;;;;;;5072044;28;20037;-68
2023/03/10 03:50:10;;;;;;;0.10;0.10;;;1.70;91.50;;;;;;5070992;28;20611;-68
2023/03/10 03:52:35;;;;;;;0.00;0.00;;;1.70;91.60;;;;;;5067001;28;20048;-67
2023/03/10 03:55:01;;;;;;;0.10;0.10;;;1.60;91.70;;;;;;5035223;28;20051;-68
2023/03/10 03:57:27;;;;;;;0.10;0.10;;;1.70;91.70;;;;;;5070109;28;20053;-68
2023/03/10 03:59:52;;;;;;;0.40;0.40;;;1.70;91.50;;;;;;5069948;28;20171;-68
2023/03/10 04:02:18;;;;;;;0.25;0.25;;;1.70;91.60;;;;;;5051240;28;20044;-68
2023/03/10 04:04:44;;;;;;;0.10;0.10;;;1.70;91.60;;;;;;5068514;28;20049;-68
2023/03/10 04:07:10;;;;;;;0.10;0.10;;;1.60;91.70;;;;;;5069367;28;20033;-69
2023/03/10 04:09:38;;;;;;;0.20;0.20;;;1.60;91.80;;;;;;5069494;28;20120;-69
2023/03/10 04:12:04;;;;;;;0.08;0.08;;;1.60;91.80;;;;;;5068142;28;20055;-68
2023/03/10 04:14:29;;;;;;;0.00;0.00;;;1.60;91.90;;;;;;5069159;28;20141;-68
2023/03/10 04:16:55;;;;;;;0.10;0.10;;;1.70;91.80;;;;;;5069152;28;20489;-68
2023/03/10 04:19:20;;;;;;;0.10;0.10;;;1.60;91.80;;;;;;5051918;28;20045;-68
2023/03/10 04:21:46;;;;;;;0.10;0.10;;;1.60;91.80;;;;;;5068883;28;20586;-68
2023/03/10 04:24:12;;;;;;;0.00;0.00;;;1.60;91.80;;;;;;5068861;28;20173;-68
2023/03/10 04:26:37;;;;;;;0.00;0.00;;;1.50;91.70;;;;;;5069353;28;20102;-68
2023/03/10 04:29:03;;;;;;;0.00;0.00;;;1.50;91.80;;;;;;5072642;28;20076;-68
2023/03/10 04:31:28;;;;;;;0.00;0.00;;;1.50;91.70;;;;;;5071435;28;20036;-69
2023/03/10 04:33:54;;;;;;;0.38;0.38;;;1.50;91.70;;;;;;5068890;28;20131;-68
2023/03/10 04:36:20;;;;;;;0.00;0.00;;;1.40;91.70;;;;;;5068600;28;20048;-68
2023/03/10 04:38:45;;;;;;;0.10;0.10;;;1.40;91.70;;;;;;5071577;28;20048;-68
2023/03/10 04:41:11;;;;;;;0.00;0.00;;;1.40;91.90;;;;;;5068414;28;20423;-68
2023/03/10 04:43:37;;;;;;;0.10;0.10;;;1.40;91.90;;;;;;5067410;28;20595;-68
2023/03/10 04:46:04;;;;;;;0.50;0.45;;;1.40;92.00;;;;;;5051187;28;20485;-68
2023/03/10 04:48:30;;;;;;;0.55;0.55;;;1.40;92.00;;;;;;5068533;28;20163;-68
2023/03/10 04:50:57;;;;;;;0.35;0.35;;;1.30;92.00;;;;;;5068310;28;20673;-68
2023/03/10 04:53:23;;;;;;;0.00;0.00;;;1.30;92.00;;;;;;5067829;28;20178;-68
2023/03/10 04:55:50;;;;;;;0.10;0.10;;;1.30;92.10;;;;;;5065614;28;20112;-68
2023/03/10 04:58:17;;;;;;;0.10;0.10;;;1.30;92.10;;;;;;5069015;28;20409;-68
2023/03/10 05:00:43;;;;;;;1.27;0.80;;;1.30;92.10;;;;;;5069164;28;20123;-68
2023/03/10 05:03:08;;;;;;;0.10;0.10;;;1.20;92.20;;;;;;5070685;28;20469;-68
2023/03/10 05:05:35;;;;;;;1.30;0.75;;;1.20;92.30;;;;;;5069119;28;20143;-68
2023/03/10 05:08:00;;;;;;;0.08;0.08;;;1.30;92.30;;;;;;5068301;28;20128;-68
2023/03/10 05:10:26;;;;;;;0.60;0.55;;;1.20;92.40;;;;;;5068409;28;20120;-68
2023/03/10 05:12:52;;;;;;;0.00;0.00;;;1.20;92.40;;;;;;5068853;28;20094;-68
2023/03/10 05:15:18;;;;;;;0.10;0.10;;;1.20;92.40;;;;;;5068293;28;20115;-69
2023/03/10 05:17:43;;;;;;;0.08;0.08;;;1.20;92.50;;;;;;5068913;28;20044;-69
2023/03/10 05:20:09;;;;;;;0.22;0.22;;;1.20;92.60;;;;;;5068441;28;20040;-68
2023/03/10 05:22:36;;;;;;;0.60;0.45;;;1.20;92.60;;;;;;5068119;28;20044;-68
2023/03/10 05:25:03;;;;;;;0.57;0.57;;;1.20;92.70;;;;;;5068631;28;20652;-68
2023/03/10 05:27:31;;;;;;;0.00;0.00;;;1.10;92.70;;;;;;5068287;28;20163;-68
2023/03/10 05:29:57;;;;;;;0.35;0.35;;;1.20;92.70;;;;;;5066418;28;20048;-68
2023/03/10 05:32:22;;;;;;;0.13;0.13;;;1.20;92.70;;;;;;5068172;28;20043;-68
2023/03/10 05:34:48;;;;;;;0.00;0.00;;;1.20;92.70;;;;;;5067648;28;20040;-68
2023/03/10 05:37:14;;;;;;;0.10;0.10;;;1.20;92.70;;;;;;5067932;28;20098;-68
2023/03/10 05:39:39;;;;;;;0.00;0.00;;;1.20;92.70;;;;;;5067684;28;20036;-68
2023/03/10 05:42:05;;;;;;;0.40;0.40;;;1.20;92.70;;;;;;5067304;28;20549;-68
2023/03/10 05:44:31;;;;;;;0.10;0.10;;;1.20;92.80;;;;;;5071487;28;20058;-68
2023/03/10 05:46:56;;;;;;;0.10;0.10;;;1.20;92.80;;;;;;5067808;28;20037;-68
2023/03/10 05:49:22;;;;;;;0.28;0.28;;;1.20;92.80;;;;;;5033748;28;20090;-68
2023/03/10 05:51:47;;;;;;;0.10;0.10;;;1.20;92.90;;;;;;5068193;28;20076;-67
2023/03/10 05:54:13;;;;;;;0.00;0.00;;;1.20;92.90;;;;;;5067839;28;20048;-68
2023/03/10 05:56:39;;;;;;;0.00;0.00;;;1.20;92.80;;;;;;5068168;28;20037;-68
2023/03/10 05:59:05;;;;;;;0.00;0.00;;;1.20;92.90;;;;;;5066782;28;20493;-68
2023/03/10 06:01:31;;;;;;;0.63;0.63;;;1.20;92.90;;;;;;5050386;28;20814;-68
2023/03/10 06:03:57;;;;;;;0.00;0.00;;;1.20;92.90;;;;;;5049804;28;20045;-68
2023/03/10 06:06:22;;;;;;;0.10;0.10;;;1.20;93.00;;;;;;5049553;28;20037;-68
2023/03/10 06:08:48;;;;;;;0.00;0.00;;;1.10;92.90;;;;;;5067094;28;20525;-68
2023/03/10 06:11:14;;;;;;;0.00;0.00;;;1.20;93.00;;;;;;5067605;28;20123;-68
2023/03/10 06:13:39;;;;;;;1.38;1.27;;;1.20;93.00;;;;;;5070599;28;20498;-68
2023/03/10 06:16:06;;;;;;;0.28;0.28;;;1.20;93.00;;;;;;5071021;28;20052;-68
2023/03/10 06:18:32;;;;;;;0.00;0.00;;;1.20;92.90;;;;;;5052963;28;20105;-68
2023/03/10 06:20:58;;;;;;;0.20;0.20;;;1.20;93.00;;;;;;5070478;28;20079;-68
2023/03/10 06:23:25;;;;;;;0.20;0.20;;;1.10;93.00;;;;;;5051426;28;20097;-69
2023/03/10 06:25:59;;;;;;;6.13;2.08;;;1.20;93.10;;;;;;5065522;28;20072;-69
2023/03/10 06:28:26;;;;;;;0.65;0.65;;;1.20;93.00;;;;;;5051016;28;20100;-69
2023/03/10 06:30:55;;;;;;;0.10;0.10;;;1.20;93.00;;;;;;5067553;28;20034;-67
2023/03/10 06:33:23;;;;;;;0.20;0.20;;;1.20;93.00;;;;;;5071072;28;20051;-67
2023/03/10 06:35:48;;;;;;;0.00;0.00;;;1.30;93.00;;;;;;5053052;28;20098;-67
2023/03/10 06:38:14;;;;;;;0.00;0.00;;;1.30;92.90;;;;;;5071016;28;20786;-68
2023/03/10 06:40:40;;;;;;;0.10;0.10;;;1.30;93.00;;;;;;5066476;28;20063;-68
2023/03/10 06:43:05;;;;;;;0.10;0.10;;;1.20;93.00;;;;;;5066628;28;20115;-67
2023/03/10 06:45:31;;;;;;;0.40;0.40;;;1.30;93.00;;;;;;5062376;28;20074;-68
2023/03/10 06:47:56;;;;;;;0.10;0.10;;;1.30;93.10;;;;;;5069782;28;20043;-67
2023/03/10 06:50:22;;;;;;;0.10;0.10;;;1.20;93.00;;;;;;5068809;28;20047;-68
2023/03/10 06:52:47;;;;;;;0.20;0.20;;;1.30;93.10;;;;;;5068908;28;20039;-68
2023/03/10 06:55:14;;;;;;;1.10;1.00;;;1.30;93.10;;;;;;5068134;28;20048;-68
2023/03/10 06:57:40;;;;;;;0.00;0.00;;;1.40;93.00;;;;;;5067409;28;20119;-68
2023/03/10 07:00:10;;;;;;;0.10;0.10;;;1.40;93.00;;;;;;5069994;28;20736;-68
2023/03/10 07:02:37;;;;;;;0.00;0.00;;;1.40;93.00;;;;;;5069946;28;20040;-68
2023/03/10 07:05:09;;;;;;;0.28;0.28;;;1.40;93.00;;;;;;5070379;28;20098;-67
2023/03/10 07:07:35;;;;;;;0.17;0.17;;;1.40;92.90;;;;;;5069693;28;20036;-67
2023/03/10 07:10:01;;;;;;;0.00;0.00;;;1.40;92.90;;;;;;5069301;28;20080;-67
2023/03/10 07:12:26;;;;;;;0.00;0.00;;;1.40;92.70;;;;;;5069007;28;20037;-67
2023/03/10 07:14:52;;;;;;;1.13;1.10;;;1.40;92.70;;;;;;5051816;28;20044;-67
2023/03/10 07:17:18;;;;;;;0.10;0.10;;;1.50;92.70;;;;;;5066740;28;20144;-67
2023/03/10 07:19:43;;;;;;;0.00;0.00;;;1.40;92.60;;;;;;5074810;28;20037;-66
2023/03/10 07:22:09;;;;;;;0.03;0.03;;;1.40;92.70;;;;;;5070922;28;20693;-64
2023/03/10 07:24:35;;;;;;;0.00;0.00;;;1.40;92.70;;;;;;5049810;28;20123;-66
2023/03/10 07:27:01;;;;;;;0.00;0.00;;;1.60;93.40;;;;;;5076469;28;20404;-66
2023/03/10 07:29:27;;;;;;;0.10;0.10;;;1.80;92.80;;;;;;5067072;28;20173;-66
2023/03/10 07:31:53;;;;;;;0.00;0.00;;;1.70;92.60;;;;;;5052546;28;20431;-66
2023/03/10 07:34:18;;;;;;;0.00;0.00;;;1.70;92.60;;;;;;5053518;28;20040;-66
2023/03/10 07:36:44;;;;;;;0.00;0.00;;;1.70;92.50;;;;;;5071192;28;20417;-66
2023/03/10 07:39:10;;;;;;;0.00;0.00;;;1.60;92.40;;;;;;5084336;28;20666;-65
2023/03/10 07:41:35;;;;;;;0.30;0.30;;;1.60;92.30;;;;;;5070337;28;20501;-65
2023/03/10 07:44:01;;;;;;;0.35;0.35;;;1.50;92.30;;;;;;5066886;28;20059;-66
2023/03/10 07:46:27;;;;;;;0.10;0.10;;;1.60;92.40;;;;;;5062337;28;20052;-65
2023/03/10 07:48:53;;;;;;;0.00;0.00;;;1.60;92.30;;;;;;5067927;28;20040;-65
2023/03/10 07:51:19;;;;;;;0.10;0.10;;;1.60;92.20;;;;;;5062214;28;20083;-65
2023/03/10 07:53:44;;;;;;;0.10;0.10;;;1.60;92.40;;;;;;5047791;28;20090;-66
2023/03/10 07:56:12;;;;;;;0.00;0.00;;;1.40;92.30;;;;;;5061969;28;20059;-65
2023/03/10 07:58:37;;;;;;;0.00;0.00;;;1.50;92.50;;;;;;5068398;28;20119;-64
2023/03/10 08:01:04;;;;;;;2.17;2.08;;;1.60;92.40;;;;;;5068867;28;20139;-65
2023/03/10 08:03:29;;;;;;;0.00;0.00;;;1.50;92.40;;;;;;5068837;28;20044;-64
2023/03/10 08:05:56;;;;;;;0.20;0.20;;;1.60;92.50;;;;;;5069014;28;20036;-64
2023/03/10 08:08:22;;;;;;;2.00;1.90;;;1.60;92.40;;;;;;5069525;28;20048;-64
2023/03/10 08:10:48;;;;;;;0.03;0.03;;;1.50;92.20;;;;;;5065120;28;20548;-65
2023/03/10 08:13:13;;;;;;;1.13;1.10;;;1.60;92.50;;;;;;5064323;28;20049;-64
2023/03/10 08:15:39;;;;;;;0.05;0.05;;;1.50;92.50;;;;;;5061078;28;20068;-67
2023/03/10 08:18:06;;;;;;;1.20;0.88;;;1.60;92.40;;;;;;5063413;28;20066;-68
2023/03/10 08:20:33;;;;;;;0.00;0.00;;;1.60;92.50;;;;;;5064711;28;20766;-68
2023/03/10 08:23:00;;;;;;;0.05;0.05;;;1.60;92.40;;;;;;5066072;28;20040;-69
2023/03/10 08:25:25;;;;;;;0.00;0.00;;;1.60;92.50;;;;;;5062552;28;20054;-69
2023/03/10 08:27:51;;;;;;;0.20;0.20;;;1.60;92.50;;;;;;5065193;28;20037;-68
2023/03/10 08:30:17;;;;;;;0.10;0.10;;;1.60;92.50;;;;;;5064723;28;20583;-69
2023/03/10 08:32:42;;;;;;;0.20;0.20;;;1.70;92.50;;;;;;5065108;28;20082;-69
2023/03/10 08:35:08;;;;;;;0.00;0.00;;;1.60;92.40;;;;;;5030704;28;20273;-68
2023/03/10 08:37:34;;;;;;;0.63;0.57;;;1.60;92.40;;;;;;5066269;28;20080;-69
2023/03/10 08:39:59;;;;;;;0.00;0.00;;;1.60;92.40;;;;;;5065454;28;20068;-69
2023/03/10 08:42:26;;;;;;;0.00;0.00;;;1.70;92.20;;;;;;5065119;28;20132;-68
2023/03/10 08:44:54;;;;;;;0.08;0.08;;;1.60;92.30;;;;;;5032036;28;20106;-69
2023/03/10 08:47:20;;;;;;;0.30;0.30;;;1.60;92.40;;;;;;5065638;28;20084;-69
2023/03/10 08:49:46;;;;;;;0.00;0.00;;;1.60;92.40;;;;;;5065610;28;20040;-69
2023/03/10 08:52:12;;;;;;;0.00;0.00;;;1.60;92.30;;;;;;5061428;28;20070;-69
2023/03/10 08:54:38;;;;;;;0.00;0.00;;;1.70;92.30;;;;;;5065635;28;20037;-69
2023/03/10 08:57:03;;;;;;;0.00;0.00;;;1.70;92.30;;;;;;5063381;28;20103;-69
2023/03/10 08:59:29;;;;;;;0.10;0.10;;;1.60;92.20;;;;;;5065306;28;20032;-64
2023/03/10 09:01:54;;;;;;;1.23;0.52;;;1.70;92.30;;;;;;5065695;28;20041;-64
2023/03/10 09:04:20;;;;;;;0.20;0.20;;;1.70;92.40;;;;;;5065572;28;20042;-64
2023/03/10 09:06:46;;;;;;;0.10;0.10;;;1.70;92.20;;;;;;5063257;28;20041;-64
2023/03/10 09:09:11;;;;;;;0.00;0.00;;;1.60;92.20;;;;;;5046727;28;20151;-65
2023/03/10 09:11:39;;;;;;;0.73;0.73;;;1.70;92.10;;;;;;5061728;28;20068;-65
2023/03/10 09:14:06;;;;;;;0.95;0.95;;;1.70;92.10;;;;;;5063334;28;20588;-63
2023/03/10 09:16:32;;;;;;;0.20;0.20;;;1.70;92.10;;;;;;5064955;28;20047;-63
2023/03/10 09:18:59;;;;;;;0.30;0.30;;;1.70;91.90;;;;;;5062981;28;20499;-64
2023/03/10 09:21:25;;;;;;;0.00;0.00;;;1.70;91.80;;;;;;5048965;28;20041;-64
2023/03/10 09:23:52;;;;;;;0.05;0.05;;;1.70;91.90;;;;;;5064305;28;20045;-64
2023/03/10 09:26:19;;;;;;;0.10;0.10;;;1.60;91.90;;;;;;5063888;28;20139;-64
2023/03/10 09:28:44;;;;;;;0.10;0.10;;;1.70;92.00;;;;;;5064186;28;20709;-64
2023/03/10 09:31:18;;;;;;;0.65;0.65;;;1.60;92.10;;;;;;5062206;28;20056;-64
2023/03/10 09:33:43;;;;;;;0.00;0.00;;;1.70;92.00;;;;;;5062638;28;20111;-63
2023/03/10 09:36:09;;;;;;;0.15;0.15;;;1.60;92.00;;;;;;5064527;28;20144;-63
2023/03/10 09:38:35;;;;;;;0.52;0.52;;;1.60;92.10;;;;;;5066453;28;20441;-64
2023/03/10 09:41:35;;;;;;;0.47;0.47;;;1.70;92.00;;;;;;5062477;28;20052;-64
2023/03/10 09:44:04;;;;;;;0.08;0.08;;;1.70;91.90;;;;;;5059791;28;20052;-64
2023/03/10 09:46:44;;;;;;;0.00;0.00;;;1.70;92.00;;;;;;5064211;28;20040;-64
2023/03/10 09:49:28;;;;;;;0.20;0.20;;;1.70;92.10;;;;;;5046325;28;20091;-64
2023/03/10 09:51:54;;;;;;;0.32;0.32;;;1.70;92.10;;;;;;5028265;28;20044;-63
2023/03/10 09:55:09;;;;;;;0.28;0.28;;;1.70;92.10;;;;;;5064836;28;20040;-63
2023/03/10 09:57:36;;;;;;;0.32;0.22;;;1.70;91.80;;;;;;5057854;28;20127;-63
2023/03/10 10:00:07;;;;;;;0.00;0.00;;;1.70;91.90;;;;;;5065204;28;20413;-63
2023/03/10 10:02:38;;;;;;;0.00;0.00;;;1.70;91.80;;;;;;5063091;28;20044;-64
2023/03/10 10:05:32;;;;;;;0.00;0.00;;;1.60;91.90;;;;;;5062103;28;20072;-63
2023/03/10 10:08:01;;;;;;;0.00;0.00;;;1.70;91.90;;;;;;5063344;28;20068;-64
2023/03/10 10:10:35;;;;;;;0.00;0.00;;;1.70;91.80;;;;;;5066015;28;20063;-63
2023/03/10 10:13:14;;;;;;;0.10;0.10;;;1.70;91.70;;;;;;5062005;28;20056;-63
2023/03/10 10:15:45;;;;;;;0.10;0.10;;;1.70;91.60;;;;;;5065779;28;20033;-64
2023/03/10 10:18:13;;;;;;;0.25;0.25;;;1.70;91.70;;;;;;5062168;28;20709;-63
2023/03/10 10:20:58;;;;;;;0.10;0.10;;;1.70;91.40;;;;;;5064976;28;20037;-63
2023/03/10 10:23:44;;;;;;;0.98;0.85;;;1.60;91.60;;;;;;5064036;28;20063;-63
2023/03/10 10:26:25;;;;;;;0.20;0.20;;;1.60;91.60;;;;;;5060973;28;20043;-64
2023/03/10 10:29:12;;;;;;;0.20;0.20;;;1.60;91.60;;;;;;5065257;28;20051;-63
2023/03/10 10:31:38;;;;;;;0.43;0.43;;;1.50;91.80;;;;;;5062016;28;20131;-63
2023/03/10 10:34:20;;;;;;;0.30;0.30;;;1.50;91.90;;;;;;5062396;28;20132;-63
2023/03/10 10:36:56;;;;;;;0.00;0.00;;;1.50;91.90;;;;;;5062416;28;20049;-63
2023/03/10 10:39:32;;;;;;;0.10;0.10;;;1.60;91.80;;;;;;5062878;28;20040;-63
2023/03/10 10:42:16;;;;;;;0.32;0.32;;;1.60;91.90;;;;;;5062435;28;20090;-63
2023/03/10 10:44:43;;;;;;;0.00;0.00;;;1.70;91.80;;;;;;5062349;28;20067;-63
2023/03/10 10:47:32;;;;;;;0.10;0.10;;;1.70;91.70;;;;;;5061615;28;20091;-63
2023/03/10 10:50:12;;;;;;;1.02;0.57;;;1.60;91.60;;;;;;5064580;28;20443;-63
2023/03/10 10:52:38;;;;;;;1.30;1.13;;;1.60;91.80;;;;;;5045794;28;20044;-64
2023/03/10 10:55:04;;;;;;;0.15;0.15;;;1.70;91.90;;;;;;5063402;28;20041;-63
2023/03/10 10:57:34;;;;;;;0.10;0.10;;;1.70;91.30;;;;;;5064557;28;20044;-63
2023/03/10 11:00:24;;;;;;;0.10;0.10;;;1.70;91.60;;;;;;5068264;28;20032;-63
2023/03/10 11:02:50;;;;;;;0.10;0.10;;;1.80;91.60;;;;;;5065822;28;20131;-64
2023/03/10 11:05:19;;;;;;;0.00;0.00;;;1.70;91.60;;;;;;5047419;28;20128;-63
2023/03/10 11:07:45;;;;;;;0.52;0.52;;;1.80;91.50;;;;;;5065101;28;20412;-63
2023/03/10 11:10:17;;;;;;;5.75;0.68;;;1.80;91.40;;;;;;5066970;28;20053;-63
2023/03/10 11:12:55;;;;;;;0.17;0.17;;;1.80;91.60;;;;;;5062107;28;20052;-63
2023/03/10 11:15:34;;;;;;;0.00;0.00;;;1.80;91.50;;;;;;5066002;28;20582;-64
2023/03/10 11:18:17;;;;;;;0.10;0.10;;;1.90;91.60;;;;;;5064256;28;20675;-64
2023/03/10 11:21:12;;;;;;;0.00;0.00;;;1.90;91.60;;;;;;5058080;28;20048;-63
2023/03/10 11:23:53;;;;;;;0.00;0.00;;;1.90;91.70;;;;;;5063861;28;20985;-63
2023/03/10 11:26:43;;;;;;;1.45;1.38;;;1.90;91.70;;;;;;5067807;28;20040;-64
2023/03/10 11:29:32;;;;;;;0.10;0.10;;;1.90;91.70;;;;;;5065189;28;20051;-64
2023/03/10 11:32:07;;;;;;;0.10;0.10;;;2.00;91.60;;;;;;5068110;28;20544;-63
2023/03/10 11:34:37;;;;;;;0.10;0.10;;;2.00;91.50;;;;;;5068322;28;20408;-64
2023/03/10 11:37:14;;;;;;;0.00;0.00;;;2.00;91.40;;;;;;5068499;28;20083;-64
2023/03/10 11:39:48;;;;;;;0.80;0.80;;;2.10;91.20;;;;;;5068450;28;20037;-64
2023/03/10 11:42:31;;;;;;;0.13;0.13;;;2.00;91.30;;;;;;5068904;28;20055;-64
2023/03/10 11:45:09;;;;;;;0.10;0.10;;;1.90;91.40;;;;;;5068133;28;20043;-63
2023/03/10 11:47:52;;;;;;;0.10;0.10;;;2.00;91.30;;;;;;5068254;28;20046;-64
2023/03/10 11:50:48;;;;;;;0.10;0.10;;;1.90;91.30;;;;;;5068909;28;20527;-63
2023/03/10 11:53:29;;;;;;;1.80;1.65;;;2.00;91.40;;;;;;5067091;28;20497;-64
2023/03/10 11:55:56;;;;;;;0.88;0.88;;;1.90;91.50;;;;;;5067897;28;20040;-64
2023/03/10 11:58:56;;;;;;;0.00;0.00;;;2.10;91.60;;;;;;5031338;28;20063;-64
2023/03/10 12:01:37;;;;;;;11.20;5.35;;;2.10;91.60;;;;;;5046044;28;20110;-64
2023/03/10 12:04:22;;;;;;;0.10;0.10;;;2.00;91.50;;;;;;5068472;28;20048;-64
2023/03/10 12:06:52;;;;;;;4.95;1.25;;;2.00;91.40;;;;;;5068438;28;20036;-64
2023/03/10 12:09:25;;;;;;;0.00;0.00;;;2.20;91.50;;;;;;5066796;28;20094;-64
2023/03/10 12:11:53;;;;;;;1.00;1.00;;;2.10;91.40;;;;;;5068509;28;20043;-64
2023/03/10 12:14:19;;;;;;;1.98;1.20;;;2.10;91.30;;;;;;5066970;28;20492;-64
2023/03/10 12:16:46;;;;;;;1.55;1.45;;;2.10;91.40;;;;;;5061905;28;20049;-64
2023/03/10 12:19:12;;;;;;;0.10;0.10;;;2.20;91.50;;;;;;5060248;28;20040;-64
2023/03/10 12:21:37;;;;;;;0.30;0.30;;;2.30;91.40;;;;;;5065697;28;20512;-64
2023/03/10 12:24:04;;;;;;;0.00;0.00;;;2.20;91.00;;;;;;5045038;28;20045;-65
2023/03/10 12:26:38;;;;;;;0.38;0.38;;;2.20;91.30;;;;;;5066281;28;20097;-64
2023/03/10 12:29:19;;;;;;;0.10;0.10;;;2.40;91.00;;;;;;5068048;28;20033;-64
2023/03/10 12:31:47;;;;;;;0.00;0.00;;;2.50;90.80;;;;;;5068808;28;20044;-64
2023/03/10 12:34:22;;;;;;;0.10;0.10;;;2.40;90.50;;;;;;5065002;28;20052;-65
2023/03/10 12:37:02;;;;;;;0.63;0.57;;;2.60;90.40;;;;;;5064675;28;20519;-64
2023/03/10 12:39:27;;;;;;;0.00;0.00;;;2.50;89.90;;;;;;5067919;28;20048;-64
2023/03/10 12:42:22;;;;;;;3.10;1.05;;;2.60;90.00;;;;;;5065529;28;20596;-64
2023/03/10 12:44:52;;;;;;;0.10;0.10;;;2.50;90.00;;;;;;5066099;28;20037;-64
2023/03/10 12:47:28;;;;;;;0.35;0.35;;;2.60;90.10;;;;;;5067566;28;20036;-64
2023/03/10 12:50:00;;;;;;;0.30;0.30;;;2.60;89.50;;;;;;5063754;28;20048;-64
2023/03/10 12:52:37;;;;;;;0.10;0.10;;;2.60;89.80;;;;;;5062994;28;20058;-63
2023/03/10 12:55:10;;;;;;;0.00;0.00;;;2.70;89.70;;;;;;5064170;28;20123;-64
2023/03/10 12:57:46;;;;;;;0.25;0.25;;;2.80;89.20;;;;;;5049869;28;20037;-64
2023/03/10 13:00:24;;;;;;;0.63;0.63;;;2.60;89.30;;;;;;5066852;28;20055;-64
2023/03/10 13:03:01;;;;;;;0.00;0.00;;;2.60;89.60;;;;;;5067633;28;20037;-64
2023/03/10 13:05:32;;;;;;;0.00;0.00;;;2.70;89.70;;;;;;5064903;28;20147;-64
2023/03/10 13:08:20;;;;;;;1.25;0.75;;;2.60;89.20;;;;;;5064592;28;20064;-64
2023/03/10 13:10:51;;;;;;;0.00;0.00;;;2.60;89.10;;;;;;5064942;28;20040;-64